Terminal Aerodrome Forecast
Issued by NWS

Home | Current Version | Previous Version | Text Only | Print | Product List | Glossary On
Versions: 1 2 3 4 5 6 7 8 9 10 11 12 13 14 15 16 17 18
908
FTUS45 KTFX 231126
TAFGTF
TAF
KGTF 231126Z 2312/2412 01007KT 5SM -SHSN BR SCT006 OVC015
      TEMPO 2312/2316 2SM -SN BR BKN006 OVC012
     FM231600 01006KT 6SM -SHSN BR SCT008 OVC020
      TEMPO 2318/2320 BKN008
     FM232000 02008KT 6SM BR VCSH SCT015 OVC025
     FM240300 VRB03KT 5SM BR SCT003 OVC035=

USA.gov is the U.S. government's official web portal to all federal, state and local government web resources and services.